Time;durP1;ratioP1;P1;durP2;ratioP2;P2;SDS_P1;SDS_P2;PMS_P1;PMS_P2;Temp;Humidity;BMP_temperature;BMP_pressure;BME280_temperature;BME280_humidity;BME280_pressure;Samples;Min_cycle;Max_cycle;Signal;HPM_P1;HPM_P2
2021/09/16 00:00:50;;;;;;;0.60;0.60;;;20.60;66.50;;;;;;5057870;28;20021;-84
2021/09/16 00:03:16;;;;;;;2.90;0.88;;;20.60;66.60;;;;;;5040911;28;20044;-83
2021/09/16 00:05:42;;;;;;;0.60;0.60;;;20.50;66.60;;;;;;5052597;28;20048;-83
2021/09/16 00:08:08;;;;;;;1.05;0.70;;;20.50;66.60;;;;;;5056590;28;20035;-83
2021/09/16 00:10:34;;;;;;;0.65;0.60;;;20.50;66.60;;;;;;5041038;28;20383;-83
2021/09/16 00:13:04;;;;;;;0.73;0.60;;;20.50;66.60;;;;;;5050644;28;20434;-83
2021/09/16 00:15:30;;;;;;;0.60;0.60;;;20.50;66.60;;;;;;5059852;28;20434;-82
2021/09/16 00:17:56;;;;;;;1.88;0.80;;;20.40;66.60;;;;;;5075955;28;20024;-83
2021/09/16 00:20:22;;;;;;;1.90;0.82;;;20.40;66.60;;;;;;5058257;28;20443;-83
2021/09/16 00:22:48;;;;;;;1.58;0.90;;;20.40;66.60;;;;;;5057749;28;20404;-83
2021/09/16 00:25:14;;;;;;;0.77;0.60;;;20.30;66.60;;;;;;5060766;28;20092;-87
2021/09/16 00:27:39;;;;;;;0.80;0.80;;;20.30;66.60;;;;;;5069156;28;20059;-82
2021/09/16 00:30:06;;;;;;;1.08;0.70;;;20.30;66.70;;;;;;5065162;28;20051;-81
2021/09/16 00:32:32;;;;;;;1.33;0.70;;;20.30;66.70;;;;;;5089467;28;20025;-83
2021/09/16 00:34:58;;;;;;;1.67;0.70;;;20.20;66.60;;;;;;5070054;28;20027;-82
2021/09/16 00:37:24;;;;;;;1.52;0.75;;;20.20;66.70;;;;;;5061648;28;20056;-81
2021/09/16 00:39:49;;;;;;;1.02;0.80;;;20.20;66.70;;;;;;5069653;28;20031;-82
2021/09/16 00:42:17;;;;;;;2.10;0.80;;;20.20;66.70;;;;;;5088367;28;20028;-83
2021/09/16 00:44:43;;;;;;;0.80;0.68;;;20.20;66.70;;;;;;5065212;28;20040;-84
2021/09/16 00:47:10;;;;;;;2.08;1.00;;;20.10;66.70;;;;;;5075978;28;20028;-83
2021/09/16 00:49:36;;;;;;;1.38;0.80;;;20.10;66.70;;;;;;5054139;28;20021;-83
2021/09/16 00:52:02;;;;;;;0.70;0.63;;;20.10;66.70;;;;;;5057208;28;20035;-83
2021/09/16 00:54:32;;;;;;;0.82;0.80;;;20.00;66.70;;;;;;5057352;28;20046;-83
2021/09/16 00:57:00;;;;;;;0.70;0.70;;;20.10;66.80;;;;;;5057400;28;20086;-84
2021/09/16 00:59:26;;;;;;;1.25;0.70;;;20.00;66.80;;;;;;5073969;28;20028;-83
2021/09/16 01:01:52;;;;;;;0.70;0.70;;;20.00;67.40;;;;;;5056821;28;20028;-83
2021/09/16 01:04:18;;;;;;;1.00;0.73;;;20.00;66.80;;;;;;5057075;28;20052;-83
2021/09/16 01:06:44;;;;;;;1.15;1.05;;;19.90;66.80;;;;;;5053489;28;20461;-83
2021/09/16 01:09:11;;;;;;;1.67;1.00;;;19.90;66.80;;;;;;5056390;28;20025;-83
2021/09/16 01:11:37;;;;;;;0.73;0.73;;;19.90;66.90;;;;;;5053298;28;20028;-84
2021/09/16 01:14:03;;;;;;;1.00;0.82;;;19.90;66.90;;;;;;5053897;28;20384;-84
2021/09/16 01:16:29;;;;;;;1.10;0.80;;;19.90;67.00;;;;;;5053525;28;20033;-84
2021/09/16 01:18:55;;;;;;;0.85;0.85;;;19.90;67.00;;;;;;5056725;28;20024;-84
2021/09/16 01:21:21;;;;;;;0.93;0.70;;;19.80;66.90;;;;;;5040234;28;20036;-83
2021/09/16 01:23:49;;;;;;;1.67;0.82;;;19.80;67.00;;;;;;5056250;28;20025;-84
2021/09/16 01:26:15;;;;;;;1.88;0.88;;;19.80;67.00;;;;;;5056600;28;20381;-84
2021/09/16 01:28:41;;;;;;;0.60;0.60;;;19.80;67.00;;;;;;5056018;28;20012;-83
2021/09/16 01:31:09;;;;;;;1.95;0.90;;;19.80;67.10;;;;;;5055488;28;20028;-83
2021/09/16 01:33:35;;;;;;;0.80;0.80;;;19.70;67.10;;;;;;5048025;28;20075;-83
2021/09/16 01:36:01;;;;;;;2.03;1.02;;;19.70;67.10;;;;;;5056331;28;20048;-83
2021/09/16 01:38:29;;;;;;;1.33;0.70;;;19.70;67.10;;;;;;5053603;28;20066;-83
2021/09/16 01:40:55;;;;;;;0.68;0.60;;;19.70;67.20;;;;;;5052392;28;20025;-83
2021/09/16 01:43:21;;;;;;;0.88;0.80;;;19.70;67.20;;;;;;5034689;28;20052;-83
2021/09/16 01:45:46;;;;;;;0.80;0.80;;;19.70;67.20;;;;;;5054128;28;20094;-84
2021/09/16 01:48:12;;;;;;;1.20;0.85;;;19.60;67.20;;;;;;5039306;28;20028;-83
2021/09/16 01:50:38;;;;;;;0.80;0.77;;;19.60;67.20;;;;;;5038868;28;20103;-84
2021/09/16 01:53:04;;;;;;;1.15;0.73;;;19.60;67.20;;;;;;5073331;28;20043;-84
2021/09/16 01:55:30;;;;;;;0.75;0.75;;;19.60;67.30;;;;;;5072366;28;20111;-84
2021/09/16 01:57:56;;;;;;;1.27;1.00;;;19.60;67.30;;;;;;5053734;28;20044;-83
2021/09/16 02:00:21;;;;;;;2.15;0.93;;;19.60;67.30;;;;;;5052907;28;20473;-85
2021/09/16 02:02:47;;;;;;;1.17;1.08;;;19.50;67.30;;;;;;5055984;28;20116;-83
2021/09/16 02:05:13;;;;;;;1.58;0.90;;;19.50;67.30;;;;;;5071999;28;20052;-83
2021/09/16 02:07:39;;;;;;;0.98;0.70;;;19.50;67.30;;;;;;5055134;28;20657;-84
2021/09/16 02:10:06;;;;;;;0.60;0.60;;;19.50;67.30;;;;;;5063883;28;20116;-83
2021/09/16 02:12:35;;;;;;;1.05;0.75;;;19.50;67.40;;;;;;5044178;28;20028;-84
2021/09/16 02:15:01;;;;;;;1.35;0.90;;;19.40;67.40;;;;;;5071901;28;20040;-85
2021/09/16 02:17:27;;;;;;;1.67;0.80;;;19.40;67.40;;;;;;5053634;28;20047;-83
2021/09/16 02:19:53;;;;;;;1.23;0.90;;;19.40;67.40;;;;;;5051694;28;20021;-83
2021/09/16 02:22:19;;;;;;;1.17;0.85;;;19.40;67.40;;;;;;5053677;28;20115;-84
2021/09/16 02:24:45;;;;;;;1.42;0.90;;;19.40;67.50;;;;;;5051997;28;20036;-84
2021/09/16 02:27:10;;;;;;;1.05;0.95;;;19.40;67.50;;;;;;5033405;28;20112;-84
2021/09/16 02:29:36;;;;;;;1.80;0.90;;;19.30;67.50;;;;;;5054420;28;20024;-84
2021/09/16 02:32:02;;;;;;;1.20;0.95;;;19.30;67.50;;;;;;5052224;28;20029;-84
2021/09/16 02:34:31;;;;;;;2.08;1.08;;;19.30;67.50;;;;;;5040500;28;20048;-84
2021/09/16 02:36:57;;;;;;;1.35;1.00;;;19.30;67.50;;;;;;5055417;28;20021;-84
2021/09/16 02:39:22;;;;;;;1.13;0.88;;;19.30;67.50;;;;;;5047243;28;20036;-84
2021/09/16 02:41:48;;;;;;;0.82;0.82;;;19.30;67.60;;;;;;5054908;28;20059;-85
2021/09/16 02:44:14;;;;;;;1.27;0.90;;;19.20;67.50;;;;;;5072217;28;20028;-85
2021/09/16 02:46:42;;;;;;;1.67;1.10;;;19.20;67.60;;;;;;5054928;28;20361;-86
2021/09/16 02:49:08;;;;;;;1.25;0.90;;;19.30;68.00;;;;;;5052345;28;20033;-85
2021/09/16 02:51:36;;;;;;;1.40;1.02;;;19.20;67.60;;;;;;5048409;28;20086;-85
2021/09/16 02:54:06;;;;;;;1.58;0.95;;;19.20;67.60;;;;;;5071871;28;20037;-85
2021/09/16 02:56:32;;;;;;;1.77;1.00;;;19.20;67.70;;;;;;5038947;28;20056;-85
2021/09/16 02:59:01;;;;;;;1.10;0.90;;;19.20;67.70;;;;;;5053575;28;20035;-85
2021/09/16 03:01:26;;;;;;;1.00;0.80;;;19.10;67.70;;;;;;5072294;28;20103;-85
2021/09/16 03:03:52;;;;;;;1.77;0.90;;;19.10;67.70;;;;;;5071568;28;20116;-85
2021/09/16 03:06:18;;;;;;;1.83;1.00;;;19.10;67.80;;;;;;5071377;28;20052;-85
2021/09/16 03:08:49;;;;;;;1.33;1.00;;;19.10;67.80;;;;;;5037986;28;20082;-85
2021/09/16 03:11:15;;;;;;;0.77;0.75;;;19.10;67.80;;;;;;5059478;28;20041;-85
2021/09/16 03:13:41;;;;;;;1.27;0.88;;;19.10;67.80;;;;;;5042757;28;20029;-85
2021/09/16 03:16:07;;;;;;;1.23;1.13;;;19.10;67.90;;;;;;5037085;28;20044;-84
2021/09/16 03:18:33;;;;;;;1.20;1.10;;;19.10;67.90;;;;;;5059408;28;20483;-85
2021/09/16 03:20:59;;;;;;;1.33;0.90;;;19.00;67.90;;;;;;5076807;28;20023;-84
2021/09/16 03:23:27;;;;;;;1.17;1.00;;;19.00;67.90;;;;;;5077372;28;20036;-86
2021/09/16 03:25:53;;;;;;;1.13;1.00;;;19.00;67.90;;;;;;5076677;28;20071;-85
2021/09/16 03:28:19;;;;;;;1.17;0.98;;;19.00;68.00;;;;;;5059759;28;20396;-84
2021/09/16 03:30:45;;;;;;;1.05;0.90;;;19.00;68.00;;;;;;5055599;28;20112;-88
2021/09/16 03:33:13;;;;;;;0.98;0.90;;;19.00;68.00;;;;;;5034815;28;20037;-84
2021/09/16 03:35:39;;;;;;;1.02;1.00;;;19.00;68.00;;;;;;5067187;28;20021;-85
2021/09/16 03:38:05;;;;;;;1.40;1.10;;;19.00;68.00;;;;;;5075254;28;20032;-84
2021/09/16 03:40:31;;;;;;;0.98;0.98;;;19.00;68.10;;;;;;5055327;28;20033;-85
2021/09/16 03:42:57;;;;;;;0.90;0.90;;;19.00;68.10;;;;;;5054771;28;20033;-85
2021/09/16 03:45:23;;;;;;;1.02;0.90;;;19.00;68.20;;;;;;5075175;28;20541;-85
2021/09/16 03:47:49;;;;;;;1.08;0.98;;;19.00;68.20;;;;;;5058367;28;20039;-85
2021/09/16 03:50:15;;;;;;;1.63;1.10;;;19.00;68.20;;;;;;5075605;28;20111;-85
2021/09/16 03:52:41;;;;;;;2.30;1.10;;;19.00;68.20;;;;;;5054830;28;20021;-85
2021/09/16 03:55:07;;;;;;;1.38;1.00;;;19.00;68.20;;;;;;5058063;28;20032;-83
2021/09/16 03:57:33;;;;;;;1.10;1.00;;;19.00;68.20;;;;;;5055307;28;20024;-85
2021/09/16 04:00:01;;;;;;;1.30;1.20;;;18.90;68.20;;;;;;5057969;28;20033;-84
2021/09/16 04:02:30;;;;;;;1.48;0.98;;;18.90;68.20;;;;;;5074762;28;20038;-84
2021/09/16 04:04:56;;;;;;;2.30;1.20;;;18.90;68.20;;;;;;5057460;28;20044;-85
2021/09/16 04:07:24;;;;;;;1.20;1.10;;;18.90;68.20;;;;;;5054329;28;20534;-84
2021/09/16 04:09:50;;;;;;;1.27;1.10;;;18.90;68.30;;;;;;5029368;28;20033;-86
2021/09/16 04:12:16;;;;;;;0.95;0.90;;;18.90;68.30;;;;;;5049511;28;20083;-84
2021/09/16 04:14:42;;;;;;;1.40;1.05;;;18.90;68.30;;;;;;5052024;28;20058;-86
2021/09/16 04:17:10;;;;;;;1.35;0.90;;;18.90;68.30;;;;;;5058246;28;20472;-85
2021/09/16 04:19:36;;;;;;;1.05;0.95;;;18.90;68.40;;;;;;5054764;28;20020;-84
2021/09/16 04:22:02;;;;;;;1.95;1.00;;;18.90;68.40;;;;;;5017754;28;20040;-85
2021/09/16 04:24:29;;;;;;;0.90;0.90;;;18.90;68.50;;;;;;5056525;28;20029;-84
2021/09/16 04:26:55;;;;;;;1.25;0.80;;;18.90;68.50;;;;;;5057840;28;20021;-84
2021/09/16 04:29:20;;;;;;;2.00;1.00;;;18.90;68.50;;;;;;5041014;28;20169;-85
2021/09/16 04:31:46;;;;;;;1.25;1.10;;;18.90;68.50;;;;;;5074296;28;20558;-86
2021/09/16 04:34:12;;;;;;;1.20;1.00;;;18.90;68.50;;;;;;5057719;28;20417;-84
2021/09/16 04:36:38;;;;;;;0.90;0.90;;;18.80;68.50;;;;;;5056231;28;20037;-85
2021/09/16 04:39:04;;;;;;;1.10;1.00;;;18.80;68.50;;;;;;5056784;28;20384;-84
2021/09/16 04:41:31;;;;;;;1.33;1.10;;;18.90;68.60;;;;;;5074143;28;20107;-85
2021/09/16 04:43:57;;;;;;;1.10;1.00;;;18.80;68.60;;;;;;5053553;28;20020;-82
2021/09/16 04:46:23;;;;;;;1.25;0.90;;;18.80;68.60;;;;;;5048727;28;20112;-82
2021/09/16 04:48:49;;;;;;;1.58;1.02;;;18.80;68.60;;;;;;5047919;28;20052;-82
2021/09/16 04:51:15;;;;;;;2.58;1.10;;;18.80;68.60;;;;;;5039992;28;20129;-82
2021/09/16 04:53:41;;;;;;;1.77;0.90;;;18.80;68.60;;;;;;5073517;28;20090;-81
2021/09/16 04:56:06;;;;;;;1.50;0.90;;;18.80;68.60;;;;;;5055654;28;20096;-83
2021/09/16 04:58:32;;;;;;;1.48;1.00;;;18.80;68.70;;;;;;5038153;28;20060;-82
2021/09/16 05:00:58;;;;;;;2.00;0.77;;;18.80;68.70;;;;;;5055937;28;20020;-82
2021/09/16 05:03:24;;;;;;;0.80;0.80;;;18.80;68.70;;;;;;5073795;28;20111;-81
2021/09/16 05:05:50;;;;;;;0.73;0.70;;;18.80;68.70;;;;;;5052442;28;20053;-82
2021/09/16 05:08:16;;;;;;;0.70;0.70;;;18.80;68.70;;;;;;5056597;28;20039;-81
2021/09/16 05:10:43;;;;;;;1.00;0.95;;;18.80;68.70;;;;;;5054197;28;20028;-82
2021/09/16 05:13:09;;;;;;;1.00;0.90;;;18.80;68.80;;;;;;5048534;28;20029;-85
2021/09/16 05:15:35;;;;;;;0.80;0.80;;;18.80;68.80;;;;;;5076571;28;20055;-88
2021/09/16 05:18:02;;;;;;;0.90;0.90;;;18.80;68.80;;;;;;5073647;28;20028;-84
2021/09/16 05:20:28;;;;;;;0.88;0.88;;;18.80;68.80;;;;;;5072509;28;20025;-85
2021/09/16 05:22:56;;;;;;;1.75;0.90;;;18.80;68.80;;;;;;5055346;28;20032;-85
2021/09/16 05:25:23;;;;;;;0.73;0.70;;;18.70;68.80;;;;;;5056244;28;20021;-85
2021/09/16 05:27:49;;;;;;;0.80;0.80;;;18.70;68.80;;;;;;5073168;28;20024;-85
2021/09/16 05:30:17;;;;;;;1.33;0.95;;;18.80;68.90;;;;;;5044524;28;20550;-85
2021/09/16 05:32:43;;;;;;;1.05;0.82;;;18.70;68.80;;;;;;5056359;28;20032;-84
2021/09/16 05:35:10;;;;;;;1.08;0.80;;;18.70;68.80;;;;;;5057104;28;20028;-84
2021/09/16 05:37:37;;;;;;;2.00;0.88;;;18.70;68.80;;;;;;5056797;28;20476;-84
2021/09/16 05:40:04;;;;;;;1.10;0.90;;;18.70;68.80;;;;;;5052869;28;20017;-85
2021/09/16 05:42:36;;;;;;;1.23;0.80;;;18.80;68.90;;;;;;5055958;28;20028;-88
2021/09/16 05:45:07;;;;;;;0.70;0.70;;;18.70;68.80;;;;;;5052027;28;20123;-87
2021/09/16 05:47:34;;;;;;;0.60;0.60;;;18.70;68.90;;;;;;5070353;28;20056;-88
2021/09/16 05:50:03;;;;;;;1.35;1.00;;;18.70;68.90;;;;;;5064928;28;20461;-85
2021/09/16 05:52:30;;;;;;;0.82;0.80;;;18.70;69.50;;;;;;5048430;28;20121;-83
2021/09/16 05:54:56;;;;;;;0.65;0.65;;;18.70;68.90;;;;;;5053611;28;20037;-84
2021/09/16 05:57:22;;;;;;;1.98;0.80;;;18.70;68.90;;;;;;5055973;28;20373;-88
2021/09/16 05:59:48;;;;;;;0.80;0.80;;;18.70;68.90;;;;;;5052171;28;20028;-83
2021/09/16 06:02:14;;;;;;;0.75;0.70;;;18.60;68.80;;;;;;5039018;28;20032;-84
2021/09/16 06:04:40;;;;;;;0.75;0.70;;;18.60;68.90;;;;;;5052623;28;20081;-84
2021/09/16 06:07:06;;;;;;;1.27;0.77;;;18.60;68.80;;;;;;5070464;28;20534;-83
2021/09/16 06:09:33;;;;;;;1.10;1.00;;;18.70;68.90;;;;;;5052831;28;20029;-84
2021/09/16 06:12:02;;;;;;;1.05;0.80;;;18.60;68.90;;;;;;5069005;28;20028;-83
2021/09/16 06:14:28;;;;;;;0.73;0.73;;;18.60;68.90;;;;;;5047592;28;20029;-83
2021/09/16 06:16:54;;;;;;;1.20;0.80;;;18.60;68.90;;;;;;5048665;28;20053;-83
2021/09/16 06:19:20;;;;;;;0.73;0.73;;;18.60;68.90;;;;;;5042393;28;20032;-84
2021/09/16 06:21:46;;;;;;;1.50;0.80;;;18.60;68.90;;;;;;5046354;28;20046;-85
2021/09/16 06:24:15;;;;;;;0.82;0.82;;;18.60;69.00;;;;;;5044002;28;20073;-85
2021/09/16 06:26:41;;;;;;;1.27;1.13;;;18.60;69.00;;;;;;5064387;28;20024;-84
2021/09/16 06:29:10;;;;;;;1.40;0.98;;;18.60;68.90;;;;;;5055468;28;20028;-84
2021/09/16 06:31:37;;;;;;;1.38;0.93;;;18.60;69.00;;;;;;5054382;28;20032;-84
2021/09/16 06:34:03;;;;;;;1.10;0.85;;;18.60;69.00;;;;;;5052711;28;20029;-85
2021/09/16 06:36:29;;;;;;;0.85;0.80;;;18.60;69.00;;;;;;5069620;28;20123;-84
2021/09/16 06:38:55;;;;;;;1.25;1.00;;;18.60;69.00;;;;;;5072703;28;20029;-85
2021/09/16 06:41:21;;;;;;;1.75;0.90;;;18.60;69.00;;;;;;5052154;28;20532;-83
2021/09/16 06:43:48;;;;;;;1.10;0.77;;;18.60;69.00;;;;;;5043086;28;20071;-83
2021/09/16 06:46:14;;;;;;;1.08;0.80;;;18.60;69.00;;;;;;5043858;28;20473;-84
2021/09/16 06:48:40;;;;;;;0.95;0.90;;;18.60;69.00;;;;;;5041471;28;20033;-83
2021/09/16 06:51:06;;;;;;;0.95;0.80;;;18.60;69.00;;;;;;5051753;28;20028;-84
2021/09/16 06:53:34;;;;;;;0.98;0.80;;;18.60;69.00;;;;;;5067292;28;20029;-83
2021/09/16 06:56:00;;;;;;;0.93;0.82;;;18.60;69.00;;;;;;5053793;28;20021;-83
2021/09/16 06:58:26;;;;;;;0.80;0.77;;;18.60;69.00;;;;;;5071640;28;20428;-83
2021/09/16 07:00:52;;;;;;;0.80;0.80;;;18.60;69.00;;;;;;5055539;28;20040;-84
2021/09/16 07:03:18;;;;;;;0.98;0.80;;;18.60;69.00;;;;;;5055209;28;20742;-84
2021/09/16 07:05:46;;;;;;;0.63;0.63;;;18.60;69.00;;;;;;5052182;28;20057;-84
2021/09/16 07:08:12;;;;;;;1.25;0.88;;;18.50;69.00;;;;;;5053061;28;20392;-84
2021/09/16 07:10:41;;;;;;;0.88;0.75;;;18.60;69.10;;;;;;5055526;28;20024;-84
2021/09/16 07:13:07;;;;;;;1.35;0.88;;;18.60;69.10;;;;;;5052464;28;20107;-84
2021/09/16 07:15:33;;;;;;;1.30;0.80;;;18.60;69.10;;;;;;5072368;28;20055;-84
2021/09/16 07:18:00;;;;;;;0.60;0.60;;;18.60;69.10;;;;;;5072723;28;20043;-84
2021/09/16 07:20:26;;;;;;;0.95;0.70;;;18.60;69.10;;;;;;5054620;28;20037;-83
2021/09/16 07:22:52;;;;;;;1.23;1.00;;;18.50;69.00;;;;;;5052412;28;20075;-84
2021/09/16 07:25:18;;;;;;;0.93;0.73;;;18.60;69.10;;;;;;5052570;28;20032;-83
2021/09/16 07:27:45;;;;;;;0.70;0.70;;;18.60;69.10;;;;;;5055589;28;20475;-83
2021/09/16 07:30:11;;;;;;;0.80;0.80;;;18.50;69.00;;;;;;5054045;28;20071;-84
2021/09/16 07:32:37;;;;;;;0.88;0.88;;;18.50;69.10;;;;;;5071567;28;20097;-84
2021/09/16 07:35:04;;;;;;;1.10;1.00;;;18.50;69.10;;;;;;5056443;28;20032;-84
2021/09/16 07:37:32;;;;;;;0.80;0.80;;;18.50;69.10;;;;;;5071836;28;20028;-86
2021/09/16 07:40:00;;;;;;;0.70;0.70;;;18.60;69.10;;;;;;5056401;28;20021;-84
2021/09/16 07:42:27;;;;;;;0.82;0.75;;;18.60;69.10;;;;;;5056070;28;20025;-85
2021/09/16 07:44:55;;;;;;;0.95;0.80;;;18.50;69.10;;;;;;5054776;28;20059;-85
2021/09/16 07:47:21;;;;;;;0.90;0.80;;;18.60;69.20;;;;;;5051418;28;20120;-84
2021/09/16 07:49:52;;;;;;;1.08;0.82;;;18.60;69.10;;;;;;5069922;28;20496;-86
2021/09/16 07:52:18;;;;;;;1.25;0.95;;;18.60;69.80;;;;;;5055389;28;20021;-84
2021/09/16 07:54:44;;;;;;;1.20;1.10;;;18.60;69.10;;;;;;5052375;28;20052;-86
2021/09/16 07:57:10;;;;;;;1.02;0.90;;;18.60;69.10;;;;;;5055059;28;20028;-85
2021/09/16 07:59:38;;;;;;;0.80;0.80;;;18.60;69.20;;;;;;5051443;28;20037;-85
2021/09/16 08:02:04;;;;;;;1.40;1.00;;;18.60;69.20;;;;;;5070559;28;20127;-84
2021/09/16 08:04:31;;;;;;;0.95;0.90;;;18.60;69.20;;;;;;5056043;28;20059;-86
2021/09/16 08:06:57;;;;;;;1.73;1.30;;;18.60;69.20;;;;;;5054759;28;20033;-85
2021/09/16 08:09:24;;;;;;;1.10;0.90;;;18.60;69.20;;;;;;5055313;28;20473;-85
2021/09/16 08:11:53;;;;;;;1.40;0.98;;;18.60;69.20;;;;;;5070910;28;20384;-84
2021/09/16 08:14:19;;;;;;;1.20;1.00;;;18.60;69.20;;;;;;5057420;28;20086;-85
2021/09/16 08:16:47;;;;;;;0.77;0.77;;;18.60;69.20;;;;;;5076263;28;20024;-86
2021/09/16 08:19:16;;;;;;;1.00;0.90;;;18.60;69.20;;;;;;5060944;28;20490;-86
2021/09/16 08:21:48;;;;;;;0.80;0.80;;;18.60;69.20;;;;;;5057139;28;20029;-85
2021/09/16 08:24:14;;;;;;;1.02;0.80;;;18.60;69.30;;;;;;5060903;28;20028;-86
2021/09/16 08:26:44;;;;;;;0.95;0.88;;;18.70;69.30;;;;;;5077386;28;20024;-85
2021/09/16 08:29:11;;;;;;;1.17;0.98;;;18.70;69.30;;;;;;5059539;28;20033;-83
2021/09/16 08:31:37;;;;;;;0.70;0.65;;;18.70;69.30;;;;;;5057896;28;20127;-85
2021/09/16 08:34:03;;;;;;;1.25;0.82;;;18.70;69.30;;;;;;5075355;28;20028;-86
2021/09/16 08:36:29;;;;;;;0.80;0.80;;;18.70;69.40;;;;;;5074550;28;20030;-85
2021/09/16 08:38:55;;;;;;;1.20;0.90;;;18.80;69.40;;;;;;5055026;28;20036;-85
2021/09/16 08:41:22;;;;;;;0.70;0.70;;;18.80;69.50;;;;;;5038183;28;20031;-86
2021/09/16 08:43:50;;;;;;;1.17;0.98;;;18.80;69.50;;;;;;5037957;28;20120;-85
2021/09/16 08:46:16;;;;;;;1.10;0.85;;;18.80;69.50;;;;;;5052075;28;20029;-85
2021/09/16 08:48:43;;;;;;;0.82;0.80;;;18.80;69.50;;;;;;5055035;28;20025;-85
2021/09/16 08:51:10;;;;;;;0.80;0.70;;;18.80;69.50;;;;;;5054310;28;20032;-84
2021/09/16 08:53:37;;;;;;;0.90;0.80;;;18.80;69.50;;;;;;5073844;28;20028;-84
2021/09/16 08:56:06;;;;;;;1.00;0.82;;;18.90;69.50;;;;;;5075842;28;20023;-83
2021/09/16 08:58:32;;;;;;;1.40;0.70;;;18.90;69.50;;;;;;5054791;28;20056;-85
2021/09/16 09:00:59;;;;;;;1.15;0.80;;;18.90;69.50;;;;;;5057727;28;20024;-83
2021/09/16 09:03:25;;;;;;;0.80;0.75;;;19.00;69.50;;;;;;5057771;28;20017;-85
2021/09/16 09:05:52;;;;;;;0.80;0.80;;;19.00;69.40;;;;;;5060204;28;20068;-84
2021/09/16 09:08:26;;;;;;;0.90;0.80;;;19.00;69.40;;;;;;5058120;28;20028;-85
2021/09/16 09:11:07;;;;;;;0.73;0.73;;;19.10;69.50;;;;;;5057345;28;20078;-85
2021/09/16 09:13:41;;;;;;;0.85;0.60;;;19.10;69.30;;;;;;5053649;28;20036;-84
2021/09/16 09:16:11;;;;;;;0.80;0.70;;;19.20;69.30;;;;;;5046009;28;20016;-85
2021/09/16 09:18:45;;;;;;;1.65;0.90;;;19.20;69.20;;;;;;5057164;28;20178;-84
2021/09/16 09:21:13;;;;;;;0.80;0.80;;;19.20;69.20;;;;;;5057020;28;20111;-84
2021/09/16 09:23:42;;;;;;;1.35;0.75;;;19.30;69.10;;;;;;5064869;28;20086;-86
2021/09/16 09:26:32;;;;;;;0.68;0.68;;;19.30;69.10;;;;;;5073015;28;20031;-84
2021/09/16 09:29:16;;;;;;;0.80;0.80;;;19.40;69.10;;;;;;5046710;28;20032;-84
2021/09/16 09:31:56;;;;;;;0.82;0.73;;;19.40;69.00;;;;;;5056420;28;20484;-84
2021/09/16 09:34:27;;;;;;;0.75;0.75;;;19.50;69.00;;;;;;5073145;28;20108;-83
2021/09/16 09:37:04;;;;;;;1.15;0.80;;;19.60;69.00;;;;;;5048307;28;20480;-83
2021/09/16 09:39:30;;;;;;;0.68;0.63;;;19.60;68.90;;;;;;5055785;28;20029;-83
2021/09/16 09:42:14;;;;;;;1.15;0.65;;;19.70;68.80;;;;;;5053049;28;20108;-82
2021/09/16 09:44:40;;;;;;;1.23;0.80;;;19.70;69.00;;;;;;5046803;28;20112;-84
2021/09/16 09:47:06;;;;;;;0.82;0.82;;;19.70;68.70;;;;;;5052438;28;20033;-82
2021/09/16 09:49:34;;;;;;;0.65;0.63;;;19.80;68.70;;;;;;5043739;28;20076;-82
2021/09/16 09:52:01;;;;;;;0.80;0.80;;;19.90;68.80;;;;;;5071058;28;20032;-83
2021/09/16 09:54:39;;;;;;;0.80;0.80;;;19.90;68.70;;;;;;5052309;28;20126;-84
2021/09/16 09:57:17;;;;;;;0.85;0.68;;;20.00;68.80;;;;;;5072191;28;20032;-84
2021/09/16 09:59:56;;;;;;;0.82;0.70;;;20.00;68.70;;;;;;5052824;28;20103;-84
2021/09/16 10:02:39;;;;;;;0.63;0.60;;;20.00;68.60;;;;;;5056296;28;20092;-84
2021/09/16 10:05:27;;;;;;;1.80;0.82;;;20.10;68.60;;;;;;5055496;28;20053;-84
2021/09/16 10:08:13;;;;;;;1.02;0.70;;;20.20;68.60;;;;;;5072817;28;20020;-83
2021/09/16 10:10:49;;;;;;;1.08;0.60;;;20.20;68.50;;;;;;5066985;28;20036;-83
2021/09/16 10:13:18;;;;;;;0.68;0.68;;;20.20;68.40;;;;;;5055757;28;20038;-83
2021/09/16 10:15:50;;;;;;;0.77;0.70;;;20.30;68.40;;;;;;5052094;28;20020;-83
2021/09/16 10:18:16;;;;;;;1.23;0.70;;;20.30;68.40;;;;;;5069832;28;20055;-83
2021/09/16 10:20:42;;;;;;;0.73;0.60;;;20.40;68.40;;;;;;5038807;28;20345;-82
2021/09/16 10:23:10;;;;;;;1.58;1.02;;;20.40;68.40;;;;;;5055596;28;20063;-82
2021/09/16 10:25:46;;;;;;;0.75;0.75;;;20.50;68.40;;;;;;5054344;28;21592;-83
2021/09/16 10:28:14;;;;;;;1.50;0.90;;;20.50;68.40;;;;;;5062766;28;20489;-83
2021/09/16 10:30:52;;;;;;;1.00;0.70;;;20.60;68.30;;;;;;5055322;28;20082;-83
2021/09/16 10:33:27;;;;;;;0.70;0.70;;;20.60;68.30;;;;;;5052265;28;20039;-83
2021/09/16 10:35:59;;;;;;;0.70;0.70;;;20.70;68.30;;;;;;5065405;28;20028;-83
2021/09/16 10:38:40;;;;;;;0.65;0.65;;;20.70;68.20;;;;;;5055347;28;20029;-86
2021/09/16 10:41:28;;;;;;;1.83;1.00;;;20.80;68.20;;;;;;5055738;28;20028;-85
2021/09/16 10:43:57;;;;;;;0.70;0.70;;;20.90;68.20;;;;;;5054601;28;20480;-82
2021/09/16 10:46:40;;;;;;;1.13;0.57;;;20.90;68.00;;;;;;5072109;28;20060;-83
2021/09/16 10:49:29;;;;;;;1.67;0.60;;;21.00;68.10;;;;;;5064078;28;20116;-83
2021/09/16 10:51:58;;;;;;;0.60;0.60;;;21.00;68.10;;;;;;5055562;28;20093;-84
2021/09/16 10:54:26;;;;;;;0.95;0.80;;;21.10;67.90;;;;;;5071789;28;20394;-83
2021/09/16 10:57:01;;;;;;;0.75;0.73;;;21.20;68.00;;;;;;5055093;28;20090;-83
2021/09/16 10:59:52;;;;;;;1.20;0.70;;;21.20;67.90;;;;;;5071144;28;20067;-83
2021/09/16 11:02:22;;;;;;;1.13;0.75;;;21.30;68.00;;;;;;5072750;28;20104;-83
2021/09/16 11:04:54;;;;;;;0.70;0.70;;;21.30;67.80;;;;;;5051852;28;20129;-82
2021/09/16 11:07:50;;;;;;;0.70;0.60;;;21.40;68.00;;;;;;5064180;28;20484;-82
2021/09/16 11:10:16;;;;;;;0.70;0.70;;;21.40;68.00;;;;;;5048266;28;20059;-82
2021/09/16 11:12:42;;;;;;;1.10;0.70;;;21.50;67.90;;;;;;5071323;28;20350;-83
2021/09/16 11:15:12;;;;;;;1.55;0.93;;;21.50;68.10;;;;;;5070768;28;20119;-82
2021/09/16 11:17:39;;;;;;;1.65;0.70;;;21.60;68.20;;;;;;5055972;28;20029;-83
2021/09/16 11:20:07;;;;;;;1.08;0.77;;;21.60;68.20;;;;;;5054711;28;20477;-81
2021/09/16 11:22:33;;;;;;;0.77;0.77;;;21.70;68.20;;;;;;5037418;28;20028;-82
2021/09/16 11:25:00;;;;;;;0.70;0.70;;;21.70;68.20;;;;;;5055311;28;20040;-82
2021/09/16 11:27:39;;;;;;;0.70;0.70;;;21.70;68.30;;;;;;5055116;28;20051;-82
2021/09/16 11:30:17;;;;;;;0.82;0.73;;;21.80;68.40;;;;;;5072587;28;20035;-82
2021/09/16 11:32:44;;;;;;;1.25;0.85;;;21.80;68.40;;;;;;5054981;28;20031;-82
2021/09/16 11:35:15;;;;;;;1.27;0.80;;;21.90;68.50;;;;;;5055804;28;20116;-82
2021/09/16 11:37:44;;;;;;;1.17;0.75;;;21.90;68.70;;;;;;5056238;28;20024;-81
2021/09/16 11:40:13;;;;;;;0.90;0.70;;;21.90;68.70;;;;;;5077705;28;20369;-81
2021/09/16 11:42:42;;;;;;;1.83;1.00;;;22.00;68.70;;;;;;5061049;28;20024;-81
2021/09/16 11:45:12;;;;;;;1.02;0.88;;;22.00;68.70;;;;;;5082306;28;20029;-82
2021/09/16 11:47:42;;;;;;;0.70;0.70;;;22.00;68.70;;;;;;5058437;28;20056;-83
2021/09/16 11:50:20;;;;;;;1.17;1.08;;;22.10;68.80;;;;;;5050724;28;20029;-83
2021/09/16 11:52:46;;;;;;;1.48;0.85;;;22.10;68.80;;;;;;5074296;28;20031;-82
2021/09/16 11:55:15;;;;;;;0.85;0.82;;;22.20;68.80;;;;;;5054543;28;20025;-82
2021/09/16 11:58:09;;;;;;;0.93;0.85;;;22.20;68.80;;;;;;5054874;28;20021;-83
2021/09/16 12:00:40;;;;;;;1.40;0.90;;;22.20;68.80;;;;;;5052131;28;20028;-83
2021/09/16 12:03:08;;;;;;;1.13;0.90;;;22.30;68.60;;;;;;5074207;28;20021;-82
2021/09/16 12:05:39;;;;;;;1.17;0.90;;;22.30;68.60;;;;;;5054048;28;20060;-82
2021/09/16 12:08:10;;;;;;;1.23;0.90;;;22.30;68.60;;;;;;5055589;28;20025;-82
2021/09/16 12:10:42;;;;;;;1.50;0.90;;;22.30;68.60;;;;;;5074702;28;20028;-82
2021/09/16 12:13:10;;;;;;;0.85;0.85;;;22.40;68.60;;;;;;5074552;28;20130;-83
2021/09/16 12:15:37;;;;;;;1.10;1.00;;;22.40;68.60;;;;;;5074348;28;20044;-83
2021/09/16 12:18:04;;;;;;;0.63;0.63;;;22.40;68.60;;;;;;5076968;28;20082;-83
2021/09/16 12:20:31;;;;;;;1.17;0.90;;;22.40;68.50;;;;;;5057928;28;20027;-83
2021/09/16 12:22:57;;;;;;;0.90;0.90;;;22.50;68.60;;;;;;5054734;28;20116;-82
2021/09/16 12:25:26;;;;;;;1.17;0.80;;;22.50;68.50;;;;;;5056045;28;20027;-82
2021/09/16 12:28:10;;;;;;;1.00;0.80;;;22.50;68.50;;;;;;5057580;28;20039;-81
2021/09/16 12:30:37;;;;;;;1.20;0.93;;;22.50;68.60;;;;;;5073830;28;20025;-83
2021/09/16 12:33:30;;;;;;;1.30;0.93;;;22.60;68.40;;;;;;5075259;28;20024;-83
2021/09/16 12:36:16;;;;;;;1.25;0.75;;;22.60;68.50;;;;;;5046566;28;20017;-83
2021/09/16 12:38:45;;;;;;;1.20;1.10;;;22.60;68.30;;;;;;5055333;28;20024;-82
2021/09/16 12:41:52;;;;;;;1.60;1.00;;;22.60;68.10;;;;;;5073807;28;20031;-83
2021/09/16 12:44:20;;;;;;;1.05;0.98;;;22.60;68.20;;;;;;5057569;28;20051;-83
2021/09/16 12:46:57;;;;;;;0.98;0.93;;;22.60;67.90;;;;;;5053517;28;20036;-83
2021/09/16 12:49:42;;;;;;;0.88;0.80;;;22.70;67.90;;;;;;5067644;28;20024;-83
2021/09/16 12:52:29;;;;;;;1.13;1.00;;;22.70;67.80;;;;;;5048491;28;20032;-82
2021/09/16 12:54:58;;;;;;;0.93;0.93;;;22.70;67.80;;;;;;5054660;28;20040;-82